Time;durP1;ratioP1;P1;durP2;ratioP2;P2;SDS_P1;SDS_P2;PMS_P1;PMS_P2;Temp;Humidity;BMP_temperature;BMP_pressure;BME280_temperature;BME280_humidity;BME280_pressure;Samples;Min_cycle;Max_cycle;Signal;HPM_P1;HPM_P2
2022/01/01 00:02:15;;;;;;;20.50;14.50;;;;;;;;;;5091971;28;20448;-75
2022/01/01 00:04:42;;;;;;;15.23;11.60;;;;;;;;;;5091777;28;20859;-72
2022/01/01 00:07:08;;;;;;;17.40;12.10;;;;;;;;;;5095936;28;20404;-72
2022/01/01 00:09:34;;;;;;;17.80;12.30;;;;;;;;;;5095927;28;20443;-72
2022/01/01 00:12:00;;;;;;;19.50;13.63;;;;;;;;;;5095969;28;20452;-74
2022/01/01 00:14:26;;;;;;;17.93;13.97;;;;;;;;;;5095829;28;20903;-72
2022/01/01 00:16:52;;;;;;;20.90;15.30;;;;;;;;;;5095765;28;20473;-72
2022/01/01 00:19:18;;;;;;;23.13;15.50;;;;;;;;;;5096869;28;20403;-71
2022/01/01 00:21:44;;;;;;;22.17;14.40;;;;;;;;;;5096907;28;20400;-72
2022/01/01 00:24:11;;;;;;;18.93;12.97;;;;;;;;;;5095714;28;20403;-72
2022/01/01 00:26:37;;;;;;;17.63;13.00;;;;;;;;;;5095653;28;20411;-72
2022/01/01 00:29:03;;;;;;;21.47;13.23;;;;;;;;;;5097000;28;20399;-72
2022/01/01 00:31:29;;;;;;;22.63;13.87;;;;;;;;;;5096794;28;20878;-76
2022/01/01 00:33:55;;;;;;;21.47;15.33;;;;;;;;;;5096681;28;20426;-72
2022/01/01 00:36:21;;;;;;;22.40;15.63;;;;;;;;;;5096607;28;20463;-72
2022/01/01 00:38:47;;;;;;;21.83;13.50;;;;;;;;;;5096657;28;20403;-72
2022/01/01 00:41:13;;;;;;;19.93;13.27;;;;;;;;;;5096579;28;20411;-72
2022/01/01 00:43:39;;;;;;;20.70;14.27;;;;;;;;;;5096535;28;20399;-72
2022/01/01 00:46:05;;;;;;;17.93;13.47;;;;;;;;;;5096575;28;20408;-72
2022/01/01 00:48:31;;;;;;;21.23;14.67;;;;;;;;;;5096479;28;20383;-72
2022/01/01 00:50:57;;;;;;;20.43;13.60;;;;;;;;;;5096593;28;20396;-72
2022/01/01 00:53:23;;;;;;;24.07;15.10;;;;;;;;;;5094991;28;20410;-72
2022/01/01 00:55:50;;;;;;;25.30;16.90;;;;;;;;;;5096204;28;20459;-72
2022/01/01 00:58:16;;;;;;;24.13;17.50;;;;;;;;;;5095985;28;20446;-73
2022/01/01 01:00:42;;;;;;;25.50;16.57;;;;;;;;;;5096418;28;20411;-72
2022/01/01 01:03:12;;;;;;;24.60;16.33;;;;;;;;;;5096088;28;20407;-72
2022/01/01 01:05:39;;;;;;;22.47;14.50;;;;;;;;;;5096229;28;20431;-72
2022/01/01 01:08:09;;;;;;;21.07;14.37;;;;;;;;;;5094686;28;20422;-72
2022/01/01 01:10:35;;;;;;;21.17;14.77;;;;;;;;;;5096126;28;20490;-71
2022/01/01 01:13:01;;;;;;;22.07;14.30;;;;;;;;;;5095877;28;20898;-72
2022/01/01 01:15:29;;;;;;;20.50;14.10;;;;;;;;;;5095985;28;20463;-72
2022/01/01 01:17:57;;;;;;;23.40;15.00;;;;;;;;;;5094181;28;20465;-72
2022/01/01 01:20:23;;;;;;;23.23;14.80;;;;;;;;;;5094600;28;20414;-72
2022/01/01 01:22:49;;;;;;;20.30;14.27;;;;;;;;;;5094563;28;20462;-72
2022/01/01 01:25:15;;;;;;;18.90;13.83;;;;;;;;;;5095793;28;20411;-72
2022/01/01 01:27:41;;;;;;;23.47;15.47;;;;;;;;;;5094445;28;20428;-72
2022/01/01 01:30:09;;;;;;;21.20;14.60;;;;;;;;;;5094404;28;20411;-72
2022/01/01 01:32:36;;;;;;;18.63;12.60;;;;;;;;;;5095622;28;20907;-73
2022/01/01 01:35:02;;;;;;;19.47;13.17;;;;;;;;;;5095365;28;20428;-73
2022/01/01 01:37:28;;;;;;;17.43;12.53;;;;;;;;;;5095596;28;20528;-72
2022/01/01 01:39:55;;;;;;;16.77;12.03;;;;;;;;;;5095715;28;20450;-72
2022/01/01 01:42:22;;;;;;;17.00;12.33;;;;;;;;;;5095621;28;20423;-73
2022/01/01 01:44:52;;;;;;;20.00;12.67;;;;;;;;;;5095504;28;20411;-72
2022/01/01 01:47:27;;;;;;;16.40;12.47;;;;;;;;;;5095485;28;20408;-74
2022/01/01 01:49:53;;;;;;;16.23;12.00;;;;;;;;;;5095529;28;20412;-72
2022/01/01 01:52:20;;;;;;;20.53;13.57;;;;;;;;;;5094084;28;20906;-71
2022/01/01 01:54:46;;;;;;;16.47;12.17;;;;;;;;;;5093909;28;20856;-72
2022/01/01 01:57:12;;;;;;;17.27;11.60;;;;;;;;;;5095193;28;20474;-73
2022/01/01 01:59:39;;;;;;;17.23;10.73;;;;;;;;;;5094893;28;20554;-71
2022/01/01 02:02:05;;;;;;;14.03;9.33;;;;;;;;;;5095009;28;20415;-71
2022/01/01 02:04:31;;;;;;;14.00;9.53;;;;;;;;;;5093676;28;20794;-71
2022/01/01 02:06:58;;;;;;;12.97;9.30;;;;;;;;;;5093758;28;20428;-71
2022/01/01 02:09:24;;;;;;;18.50;11.50;;;;;;;;;;5093641;28;20874;-72
2022/01/01 02:11:52;;;;;;;15.07;11.53;;;;;;;;;;5094908;28;20499;-71
2022/01/01 02:14:24;;;;;;;15.70;12.57;;;;;;;;;;5094756;28;20403;-72
2022/01/01 02:19:26;;;;;;;14.43;9.83;;;;;;;;;;5094772;28;20380;-72
2022/01/01 02:21:54;;;;;;;14.70;10.20;;;;;;;;;;5094739;28;20416;-71
2022/01/01 02:24:20;;;;;;;13.53;9.60;;;;;;;;;;5094623;28;20397;-71
2022/01/01 02:26:47;;;;;;;14.37;10.43;;;;;;;;;;5093527;28;20420;-71
2022/01/01 02:29:13;;;;;;;15.13;11.27;;;;;;;;;;5093710;28;20407;-71
2022/01/01 02:31:39;;;;;;;12.73;9.50;;;;;;;;;;5094450;28;20408;-71
2022/01/01 02:34:06;;;;;;;17.23;11.23;;;;;;;;;;5092910;28;20832;-71
2022/01/01 02:36:33;;;;;;;16.10;11.30;;;;;;;;;;5094302;28;20819;-71
2022/01/01 02:38:59;;;;;;;14.23;10.40;;;;;;;;;;5094376;28;20491;-71
2022/01/01 02:41:26;;;;;;;15.47;10.63;;;;;;;;;;5093056;28;20499;-72
2022/01/01 02:43:53;;;;;;;13.90;10.20;;;;;;;;;;5094333;28;20408;-71
2022/01/01 02:46:19;;;;;;;15.80;10.70;;;;;;;;;;5094237;28;20412;-72
2022/01/01 02:48:45;;;;;;;14.70;10.50;;;;;;;;;;5094081;28;20392;-71
2022/01/01 02:51:12;;;;;;;15.50;11.37;;;;;;;;;;5094229;28;20414;-71
2022/01/01 02:53:41;;;;;;;12.27;9.30;;;;;;;;;;5093992;28;20412;-74
2022/01/01 02:56:07;;;;;;;14.80;10.00;;;;;;;;;;5093878;28;20467;-72
2022/01/01 02:58:33;;;;;;;14.80;10.63;;;;;;;;;;5093763;28;20444;-75
2022/01/01 03:00:59;;;;;;;12.90;9.90;;;;;;;;;;5092763;28;20460;-73
2022/01/01 03:03:25;;;;;;;13.63;9.93;;;;;;;;;;5092641;28;20816;-71
2022/01/01 03:05:51;;;;;;;14.33;10.40;;;;;;;;;;5092576;28;20415;-75
2022/01/01 03:08:17;;;;;;;18.40;10.10;;;;;;;;;;5093814;28;20412;-72
2022/01/01 03:10:43;;;;;;;13.83;10.60;;;;;;;;;;5092588;28;20878;-72
2022/01/01 03:13:09;;;;;;;11.60;8.37;;;;;;;;;;5093664;28;20435;-72
2022/01/01 03:15:35;;;;;;;11.37;8.60;;;;;;;;;;5093610;28;20503;-71
2022/01/01 03:18:02;;;;;;;12.10;8.77;;;;;;;;;;5092447;28;20913;-73
2022/01/01 03:20:28;;;;;;;11.80;7.93;;;;;;;;;;5093676;28;20415;-72
2022/01/01 03:22:54;;;;;;;9.73;7.60;;;;;;;;;;5093664;28;20523;-73
2022/01/01 03:25:20;;;;;;;12.07;9.17;;;;;;;;;;5093560;28;20396;-72
2022/01/01 03:27:46;;;;;;;13.93;9.33;;;;;;;;;;5093527;28;20407;-75
2022/01/01 03:30:21;;;;;;;11.20;8.80;;;;;;;;;;5092249;28;20754;-72
2022/01/01 03:32:47;;;;;;;12.37;9.00;;;;;;;;;;5092996;28;20410;-72
2022/01/01 03:35:13;;;;;;;11.17;8.23;;;;;;;;;;5093273;28;20763;-73
2022/01/01 03:37:39;;;;;;;12.00;8.63;;;;;;;;;;5093327;28;20416;-73
2022/01/01 03:40:06;;;;;;;11.67;8.43;;;;;;;;;;5093287;28;20403;-72
2022/01/01 03:42:32;;;;;;;12.00;8.53;;;;;;;;;;5093368;28;20404;-71
2022/01/01 03:44:58;;;;;;;20.20;9.17;;;;;;;;;;5093335;28;20395;-72
2022/01/01 03:47:24;;;;;;;10.50;7.60;;;;;;;;;;5093290;28;20399;-72
2022/01/01 03:49:50;;;;;;;12.47;7.60;;;;;;;;;;5093286;28;20396;-72
2022/01/01 03:52:16;;;;;;;10.90;7.97;;;;;;;;;;5091927;28;20553;-72
2022/01/01 03:54:42;;;;;;;11.07;8.07;;;;;;;;;;5093182;28;20408;-76
2022/01/01 03:57:08;;;;;;;9.40;7.60;;;;;;;;;;5093129;28;20469;-74
2022/01/01 03:59:34;;;;;;;13.20;8.43;;;;;;;;;;5091828;28;20558;-71
2022/01/01 04:02:00;;;;;;;16.00;9.47;;;;;;;;;;5091918;28;20420;-71
2022/01/01 04:04:26;;;;;;;11.13;8.33;;;;;;;;;;5093104;28;20772;-71
2022/01/01 04:06:53;;;;;;;11.80;8.00;;;;;;;;;;5093156;28;20412;-72
2022/01/01 04:09:19;;;;;;;10.00;7.30;;;;;;;;;;5093082;28;20396;-72
2022/01/01 04:11:45;;;;;;;10.13;7.30;;;;;;;;;;5091816;28;20420;-73
2022/01/01 04:14:14;;;;;;;9.77;6.53;;;;;;;;;;5092972;28;20460;-71
2022/01/01 04:16:40;;;;;;;10.00;6.80;;;;;;;;;;5093009;28;20475;-77
2022/01/01 04:19:06;;;;;;;9.53;7.00;;;;;;;;;;5091746;28;20411;-71
2022/01/01 04:21:32;;;;;;;9.80;6.47;;;;;;;;;;5091795;28;20521;-76
2022/01/01 04:23:58;;;;;;;6.90;5.93;;;;;;;;;;5091695;28;20415;-71
2022/01/01 04:26:25;;;;;;;9.77;8.30;;;;;;;;;;5092895;28;20561;-76
2022/01/01 04:28:51;;;;;;;9.93;7.10;;;;;;;;;;5091773;28;20760;-72
2022/01/01 04:31:17;;;;;;;11.50;6.93;;;;;;;;;;5091597;28;20926;-75
2022/01/01 04:33:43;;;;;;;9.17;6.43;;;;;;;;;;5091462;28;20431;-72
2022/01/01 04:36:10;;;;;;;8.27;5.80;;;;;;;;;;5092749;28;20633;-71
2022/01/01 04:38:37;;;;;;;9.30;5.97;;;;;;;;;;5092781;28;20494;-71
2022/01/01 04:41:04;;;;;;;6.73;5.50;;;;;;;;;;5092892;28;20768;-71
2022/01/01 04:43:30;;;;;;;7.17;6.10;;;;;;;;;;5092706;28;20407;-71
2022/01/01 04:45:56;;;;;;;8.07;6.10;;;;;;;;;;5092719;28;20404;-72
2022/01/01 04:48:23;;;;;;;9.40;6.00;;;;;;;;;;5092708;28;20928;-72
2022/01/01 04:50:49;;;;;;;7.17;5.47;;;;;;;;;;5092604;28;20802;-71
2022/01/01 04:53:17;;;;;;;7.10;5.23;;;;;;;;;;5095292;28;20807;-72
2022/01/01 04:55:44;;;;;;;5.73;4.33;;;;;;;;;;5096382;28;20447;-71
2022/01/01 04:58:10;;;;;;;7.10;5.67;;;;;;;;;;5095999;28;20411;-72
2022/01/01 05:00:36;;;;;;;5.70;4.40;;;;;;;;;;5096409;28;20510;-73
2022/01/01 05:03:02;;;;;;;6.17;4.93;;;;;;;;;;5096098;28;20435;-71
2022/01/01 05:05:28;;;;;;;6.27;4.40;;;;;;;;;;5096182;28;20411;-71
2022/01/01 05:07:54;;;;;;;6.13;5.10;;;;;;;;;;5096043;28;20898;-71
2022/01/01 05:10:20;;;;;;;7.73;4.93;;;;;;;;;;5096159;28;20404;-72
2022/01/01 05:12:46;;;;;;;5.83;4.43;;;;;;;;;;5096012;28;20491;-71
2022/01/01 05:15:12;;;;;;;5.27;4.43;;;;;;;;;;5095893;28;20992;-71
2022/01/01 05:17:38;;;;;;;5.60;4.70;;;;;;;;;;5095972;28;20408;-71
2022/01/01 05:20:04;;;;;;;6.80;4.73;;;;;;;;;;5095930;28;20431;-72
2022/01/01 05:22:30;;;;;;;5.80;4.40;;;;;;;;;;5095942;28;20421;-72
2022/01/01 05:24:59;;;;;;;5.63;4.63;;;;;;;;;;5095767;28;20399;-72
2022/01/01 05:27:26;;;;;;;5.70;4.47;;;;;;;;;;5095681;28;20957;-72
2022/01/01 05:29:52;;;;;;;6.77;4.90;;;;;;;;;;5095790;28;20402;-71
2022/01/01 05:32:18;;;;;;;7.30;4.57;;;;;;;;;;5094341;28;20465;-72
2022/01/01 05:34:44;;;;;;;7.03;4.97;;;;;;;;;;5095658;28;20474;-72
2022/01/01 05:37:10;;;;;;;5.20;4.43;;;;;;;;;;5095554;28;20825;-72
2022/01/01 05:39:36;;;;;;;5.17;4.43;;;;;;;;;;5094283;28;20444;-72
2022/01/01 05:42:02;;;;;;;6.80;4.83;;;;;;;;;;5094267;28;20424;-71
2022/01/01 05:44:28;;;;;;;6.70;4.90;;;;;;;;;;5095398;28;20403;-71
2022/01/01 05:46:54;;;;;;;6.43;5.00;;;;;;;;;;5095466;28;20710;-72
2022/01/01 05:49:21;;;;;;;7.13;5.00;;;;;;;;;;5095470;28;20557;-72
2022/01/01 05:51:47;;;;;;;7.37;4.80;;;;;;;;;;5095202;28;20420;-71
2022/01/01 05:54:13;;;;;;;5.97;4.30;;;;;;;;;;5095253;28;20400;-72
2022/01/01 05:56:39;;;;;;;5.50;4.57;;;;;;;;;;5095169;28;20558;-73
2022/01/01 05:59:05;;;;;;;9.00;5.20;;;;;;;;;;5094823;28;20483;-72
2022/01/01 06:01:31;;;;;;;5.07;4.20;;;;;;;;;;5095229;28;20419;-72
2022/01/01 06:03:57;;;;;;;6.23;4.53;;;;;;;;;;5092428;28;20507;-72
2022/01/01 06:06:23;;;;;;;4.67;3.87;;;;;;;;;;5093929;28;20511;-72
2022/01/01 06:08:49;;;;;;;5.50;4.67;;;;;;;;;;5095116;28;20400;-72
2022/01/01 06:11:15;;;;;;;5.93;4.73;;;;;;;;;;5094826;28;20909;-71
2022/01/01 06:13:41;;;;;;;6.37;4.93;;;;;;;;;;5094950;28;20472;-72
2022/01/01 06:16:07;;;;;;;5.17;4.43;;;;;;;;;;5094730;28;20857;-72
2022/01/01 06:18:34;;;;;;;6.30;4.80;;;;;;;;;;5094766;28;20895;-72
2022/01/01 06:21:02;;;;;;;6.00;4.50;;;;;;;;;;5094735;28;20388;-71
2022/01/01 06:23:28;;;;;;;6.50;4.60;;;;;;;;;;5094794;28;20416;-71
2022/01/01 06:25:54;;;;;;;7.30;5.07;;;;;;;;;;5094631;28;20399;-71
2022/01/01 06:28:20;;;;;;;5.77;4.80;;;;;;;;;;5093272;28;20506;-71
2022/01/01 06:30:46;;;;;;;8.80;4.90;;;;;;;;;;5093239;28;20464;-72
2022/01/01 06:33:15;;;;;;;5.50;4.60;;;;;;;;;;5094402;28;20436;-76
2022/01/01 06:35:42;;;;;;;6.70;5.30;;;;;;;;;;5093246;28;20478;-75
2022/01/01 06:38:09;;;;;;;5.70;3.97;;;;;;;;;;5094509;28;20445;-72
2022/01/01 06:40:36;;;;;;;5.00;4.37;;;;;;;;;;5094352;28;20404;-73
2022/01/01 06:43:03;;;;;;;5.37;4.53;;;;;;;;;;5094260;28;20416;-72
2022/01/01 06:45:29;;;;;;;4.80;4.40;;;;;;;;;;5092989;28;20771;-72
2022/01/01 06:47:55;;;;;;;6.03;4.60;;;;;;;;;;5094281;28;20410;-72
2022/01/01 06:50:21;;;;;;;4.40;4.00;;;;;;;;;;5094231;28;20408;-71
2022/01/01 06:52:47;;;;;;;5.87;4.87;;;;;;;;;;5094150;28;20415;-71
2022/01/01 06:55:13;;;;;;;6.13;4.70;;;;;;;;;;5094078;28;20496;-75
2022/01/01 06:57:40;;;;;;;6.60;4.93;;;;;;;;;;5094098;28;20461;-72
2022/01/01 07:00:06;;;;;;;5.87;3.77;;;;;;;;;;5093811;28;20447;-72
2022/01/01 07:02:37;;;;;;;5.30;4.10;;;;;;;;;;5094049;28;20407;-71
2022/01/01 07:05:03;;;;;;;5.63;4.60;;;;;;;;;;5094021;28;20469;-72
2022/01/01 07:07:29;;;;;;;6.20;3.73;;;;;;;;;;5093894;28;20414;-72
2022/01/01 07:09:55;;;;;;;5.30;4.43;;;;;;;;;;5093872;28;20495;-75
2022/01/01 07:12:21;;;;;;;5.23;4.03;;;;;;;;;;5093785;28;20412;-71
2022/01/01 07:14:47;;;;;;;4.80;3.67;;;;;;;;;;5093369;28;20400;-72
2022/01/01 07:17:13;;;;;;;6.30;4.67;;;;;;;;;;5093570;28;20467;-73
2022/01/01 07:19:39;;;;;;;5.30;4.50;;;;;;;;;;5093714;28;20917;-71
2022/01/01 07:22:05;;;;;;;7.23;3.83;;;;;;;;;;5093701;28;20436;-72
2022/01/01 07:24:31;;;;;;;4.63;3.83;;;;;;;;;;5092388;28;20415;-71
2022/01/01 07:26:57;;;;;;;6.10;4.13;;;;;;;;;;5093663;28;20416;-71
2022/01/01 07:29:23;;;;;;;7.13;4.50;;;;;;;;;;5093504;28;20404;-72
2022/01/01 07:31:53;;;;;;;5.20;3.87;;;;;;;;;;5093423;28;20411;-71
2022/01/01 07:34:19;;;;;;;6.90;4.20;;;;;;;;;;5093423;28;20451;-72
2022/01/01 07:36:45;;;;;;;6.43;3.90;;;;;;;;;;5093269;28;20524;-71
2022/01/01 07:39:11;;;;;;;5.23;4.23;;;;;;;;;;5093467;28;20879;-71
2022/01/01 07:41:37;;;;;;;5.57;4.23;;;;;;;;;;5093372;28;20443;-72
2022/01/01 07:44:03;;;;;;;6.10;4.97;;;;;;;;;;5092034;28;20424;-72
2022/01/01 07:46:29;;;;;;;5.90;4.13;;;;;;;;;;5092115;28;20562;-72
2022/01/01 07:48:56;;;;;;;5.97;3.53;;;;;;;;;;5093184;28;20760;-71
2022/01/01 07:51:22;;;;;;;6.70;4.43;;;;;;;;;;5093236;28;20498;-71
2022/01/01 07:53:48;;;;;;;4.53;4.03;;;;;;;;;;5091921;28;20498;-72
2022/01/01 07:56:14;;;;;;;9.23;4.23;;;;;;;;;;5093275;28;20474;-72
2022/01/01 07:58:40;;;;;;;5.13;3.43;;;;;;;;;;5091696;28;20467;-72
2022/01/01 08:01:06;;;;;;;6.00;4.27;;;;;;;;;;5093160;28;20416;-76
2022/01/01 08:03:32;;;;;;;6.43;3.97;;;;;;;;;;5091827;28;20976;-71
2022/01/01 08:05:58;;;;;;;4.40;3.60;;;;;;;;;;5093221;28;20408;-74
2022/01/01 08:08:24;;;;;;;5.63;3.50;;;;;;;;;;5093041;28;20411;-73
2022/01/01 08:10:50;;;;;;;5.90;3.93;;;;;;;;;;5092970;28;20396;-71
2022/01/01 08:13:24;;;;;;;4.07;3.67;;;;;;;;;;5091866;28;20516;-71
2022/01/01 08:15:51;;;;;;;6.20;4.00;;;;;;;;;;5093073;28;20443;-72
2022/01/01 08:18:17;;;;;;;4.20;3.50;;;;;;;;;;5093044;28;20399;-72
2022/01/01 08:20:43;;;;;;;4.83;4.07;;;;;;;;;;5091833;28;20758;-71
2022/01/01 08:23:10;;;;;;;4.23;3.83;;;;;;;;;;5092946;28;20508;-72
2022/01/01 08:25:36;;;;;;;5.57;4.00;;;;;;;;;;5091722;28;20968;-72
2022/01/01 08:28:02;;;;;;;4.70;3.67;;;;;;;;;;5095396;28;20411;-73
2022/01/01 08:30:28;;;;;;;4.67;3.43;;;;;;;;;;5095713;28;20759;-72
2022/01/01 08:33:01;;;;;;;4.13;3.67;;;;;;;;;;5096718;28;20410;-71
2022/01/01 08:35:27;;;;;;;4.17;3.70;;;;;;;;;;5096886;28;20877;-72
2022/01/01 08:37:53;;;;;;;7.43;4.37;;;;;;;;;;5096717;28;20895;-74
2022/01/01 08:40:19;;;;;;;4.70;3.77;;;;;;;;;;5096664;28;20395;-75
2022/01/01 08:42:45;;;;;;;5.23;3.33;;;;;;;;;;5096671;28;20412;-73
2022/01/01 08:45:11;;;;;;;5.30;3.37;;;;;;;;;;5096591;28;20399;-72
2022/01/01 08:47:37;;;;;;;4.70;3.40;;;;;;;;;;5096410;28;20518;-72
2022/01/01 08:50:04;;;;;;;5.33;4.13;;;;;;;;;;5096581;28;20395;-71
2022/01/01 08:52:30;;;;;;;4.73;4.07;;;;;;;;;;5096407;28;20414;-71
2022/01/01 08:54:56;;;;;;;4.60;3.63;;;;;;;;;;5096375;28;20419;-71
2022/01/01 08:57:22;;;;;;;6.20;3.87;;;;;;;;;;5096257;28;20471;-71
2022/01/01 08:59:48;;;;;;;4.93;3.80;;;;;;;;;;5094910;28;20471;-71
2022/01/01 09:02:14;;;;;;;4.87;3.80;;;;;;;;;;5096407;28;20420;-72
2022/01/01 09:04:40;;;;;;;3.80;3.40;;;;;;;;;;5096162;28;20482;-71
2022/01/01 09:07:06;;;;;;;5.43;4.17;;;;;;;;;;5096098;28;20905;-71
2022/01/01 09:09:32;;;;;;;5.43;3.90;;;;;;;;;;5096219;28;20747;-72
2022/01/01 09:11:58;;;;;;;4.87;3.57;;;;;;;;;;5096002;28;20487;-71
2022/01/01 09:14:24;;;;;;;4.50;3.80;;;;;;;;;;5096146;28;20431;-71
2022/01/01 09:16:50;;;;;;;4.90;4.10;;;;;;;;;;5095885;28;20997;-71
2022/01/01 09:19:18;;;;;;;4.30;3.90;;;;;;;;;;5095949;28;20396;-71
2022/01/01 09:21:44;;;;;;;4.10;3.30;;;;;;;;;;5095995;28;20418;-71
2022/01/01 09:24:10;;;;;;;4.00;3.30;;;;;;;;;;5095826;28;20443;-72
2022/01/01 09:26:36;;;;;;;3.67;3.33;;;;;;;;;;5094483;28;20407;-72
2022/01/01 09:29:04;;;;;;;3.73;3.17;;;;;;;;;;5095916;28;20758;-72
2022/01/01 09:31:30;;;;;;;4.30;3.70;;;;;;;;;;5095703;28;20411;-71
2022/01/01 09:33:56;;;;;;;7.40;3.63;;;;;;;;;;5095706;28;20514;-72
2022/01/01 09:36:22;;;;;;;4.33;3.33;;;;;;;;;;5095511;28;20562;-72
2022/01/01 09:38:48;;;;;;;5.13;3.60;;;;;;;;;;5095228;28;20922;-71
2022/01/01 09:41:15;;;;;;;4.10;3.10;;;;;;;;;;5095458;28;20495;-71
2022/01/01 09:43:42;;;;;;;4.13;3.63;;;;;;;;;;5095448;28;20403;-71
2022/01/01 09:46:09;;;;;;;3.73;3.10;;;;;;;;;;5094235;28;20768;-72
2022/01/01 09:48:35;;;;;;;4.43;3.20;;;;;;;;;;5095414;28;20414;-72
2022/01/01 09:51:02;;;;;;;4.33;3.60;;;;;;;;;;5095311;28;20446;-72
2022/01/01 09:53:29;;;;;;;5.23;3.57;;;;;;;;;;5094004;28;20920;-71
2022/01/01 09:55:56;;;;;;;3.40;3.10;;;;;;;;;;5093868;28;20474;-71
2022/01/01 09:58:29;;;;;;;4.60;3.77;;;;;;;;;;5095040;28;20454;-72
2022/01/01 10:00:55;;;;;;;3.87;3.47;;;;;;;;;;5095189;28;20465;-72
2022/01/01 10:03:28;;;;;;;4.50;3.70;;;;;;;;;;5095107;28;20470;-72
2022/01/01 10:06:08;;;;;;;5.40;3.93;;;;;;;;;;5095101;28;20415;-72
2022/01/01 10:08:36;;;;;;;4.00;3.47;;;;;;;;;;5093655;28;20408;-71
2022/01/01 10:11:02;;;;;;;3.80;3.43;;;;;;;;;;5094858;28;20412;-72
2022/01/01 10:13:36;;;;;;;5.70;4.20;;;;;;;;;;5094966;28;20403;-72
2022/01/01 10:16:03;;;;;;;15.20;6.00;;;;;;;;;;5093465;28;20502;-71
2022/01/01 10:18:30;;;;;;;13.20;6.60;;;;;;;;;;5094845;28;20411;-72
2022/01/01 10:20:57;;;;;;;16.93;5.97;;;;;;;;;;5094799;28;20396;-72
2022/01/01 10:23:28;;;;;;;4.93;3.53;;;;;;;;;;5094764;28;20438;-72
2022/01/01 10:29:02;;;;;;;5.30;3.73;;;;;;;;;;5094663;28;20924;-72
2022/01/01 10:31:28;;;;;;;5.27;3.80;;;;;;;;;;5094482;28;20435;-72
2022/01/01 10:33:54;;;;;;;6.00;3.40;;;;;;;;;;5093076;28;20462;-72
2022/01/01 10:36:22;;;;;;;5.57;3.80;;;;;;;;;;5093201;28;20497;-76
2022/01/01 10:38:49;;;;;;;8.27;3.70;;;;;;;;;;5094384;28;20408;-72
2022/01/01 10:41:16;;;;;;;6.57;3.90;;;;;;;;;;5094311;28;20499;-72
2022/01/01 10:43:43;;;;;;;5.43;3.90;;;;;;;;;;5093094;28;20499;-72
2022/01/01 10:46:11;;;;;;;5.90;3.13;;;;;;;;;;5094288;28;20752;-72
2022/01/01 10:51:04;;;;;;;3.20;2.90;;;;;;;;;;5093505;28;20400;-71
2022/01/01 10:53:30;;;;;;;4.30;2.80;;;;;;;;;;5092900;28;20786;-72
2022/01/01 10:55:58;;;;;;;3.90;2.70;;;;;;;;;;5094110;28;20519;-72
2022/01/01 10:58:29;;;;;;;6.63;3.07;;;;;;;;;;5092565;28;20451;-73
2022/01/01 11:00:59;;;;;;;2.90;2.40;;;;;;;;;;5094000;28;20408;-72
2022/01/01 11:03:25;;;;;;;6.03;4.70;;;;;;;;;;5093929;28;20420;-74
2022/01/01 11:06:03;;;;;;;5.83;5.03;;;;;;;;;;5093972;28;20407;-71
2022/01/01 11:08:29;;;;;;;7.53;5.83;;;;;;;;;;5093827;28;20396;-73
2022/01/01 11:10:55;;;;;;;8.43;5.37;;;;;;;;;;5093617;28;20494;-72
2022/01/01 11:13:22;;;;;;;8.17;5.33;;;;;;;;;;5093853;28;20430;-71
2022/01/01 11:15:48;;;;;;;6.57;5.50;;;;;;;;;;5093780;28;20447;-71
2022/01/01 11:18:14;;;;;;;9.63;5.17;;;;;;;;;;5093723;28;20406;-71
2022/01/01 11:20:40;;;;;;;7.93;5.30;;;;;;;;;;5093654;28;20443;-71
2022/01/01 11:23:08;;;;;;;6.80;5.20;;;;;;;;;;5093762;28;20478;-71
2022/01/01 11:25:34;;;;;;;8.83;5.10;;;;;;;;;;5093658;28;20399;-73
2022/01/01 11:28:01;;;;;;;6.40;5.20;;;;;;;;;;5093591;28;21009;-71
2022/01/01 11:30:31;;;;;;;6.00;5.33;;;;;;;;;;5092307;28;20842;-71
2022/01/01 11:33:15;;;;;;;9.83;6.00;;;;;;;;;;5093476;28;20506;-71
2022/01/01 11:35:43;;;;;;;7.00;5.43;;;;;;;;;;5093412;28;21004;-71
2022/01/01 11:38:16;;;;;;;10.37;6.87;;;;;;;;;;5093406;28;20702;-71
2022/01/01 11:40:57;;;;;;;7.10;5.83;;;;;;;;;;5092156;28;20949;-71
2022/01/01 11:43:30;;;;;;;8.83;6.07;;;;;;;;;;5093509;28;20422;-71
2022/01/01 11:45:59;;;;;;;8.90;5.87;;;;;;;;;;5093228;28;20814;-71
2022/01/01 11:48:28;;;;;;;7.00;5.97;;;;;;;;;;5092089;28;20766;-71
2022/01/01 11:50:54;;;;;;;8.67;5.70;;;;;;;;;;5093318;28;20408;-71
2022/01/01 11:53:30;;;;;;;7.00;5.53;;;;;;;;;;5093350;28;20491;-71
2022/01/01 11:56:06;;;;;;;6.57;4.83;;;;;;;;;;5093135;28;20977;-71
2022/01/01 11:58:48;;;;;;;8.27;5.77;;;;;;;;;;5092952;28;20524;-71
2022/01/01 12:01:18;;;;;;;5.23;4.70;;;;;;;;;;5094344;28;20403;-71
2022/01/01 12:03:51;;;;;;;8.17;5.30;;;;;;;;;;5097332;28;20423;-72
2022/01/01 12:06:17;;;;;;;6.03;4.90;;;;;;;;;;5097286;28;20477;-72
2022/01/01 12:08:44;;;;;;;6.97;5.20;;;;;;;;;;5097325;28;20400;-72
2022/01/01 12:11:26;;;;;;;8.13;5.27;;;;;;;;;;5095953;28;20514;-73
2022/01/01 12:13:56;;;;;;;6.17;4.90;;;;;;;;;;5097255;28;20404;-72
2022/01/01 12:16:22;;;;;;;6.30;4.50;;;;;;;;;;5097023;28;20473;-72
2022/01/01 12:18:48;;;;;;;6.77;4.80;;;;;;;;;;5097098;28;20407;-72
2022/01/01 12:21:22;;;;;;;5.40;4.63;;;;;;;;;;5096902;28;20502;-72
2022/01/01 12:23:54;;;;;;;5.93;5.33;;;;;;;;;;5097040;28;20437;-73
2022/01/01 12:26:30;;;;;;;8.87;5.20;;;;;;;;;;5096957;28;20450;-72
2022/01/01 12:29:00;;;;;;;7.07;4.93;;;;;;;;;;5096930;28;20392;-71
2022/01/01 12:31:28;;;;;;;8.40;5.20;;;;;;;;;;5096919;28;20388;-72
2022/01/01 12:33:57;;;;;;;6.40;5.30;;;;;;;;;;5096865;28;20424;-72
2022/01/01 12:36:25;;;;;;;9.93;6.93;;;;;;;;;;5096722;28;20527;-72
2022/01/01 12:38:55;;;;;;;9.23;6.40;;;;;;;;;;5096704;28;20542;-72
2022/01/01 12:41:22;;;;;;;9.10;7.17;;;;;;;;;;5095357;28;20806;-72
2022/01/01 12:43:48;;;;;;;9.93;7.30;;;;;;;;;;5096666;28;20408;-72
2022/01/01 12:46:16;;;;;;;10.30;7.53;;;;;;;;;;5096530;28;20412;-72
2022/01/01 12:48:42;;;;;;;11.70;8.37;;;;;;;;;;5096650;28;20406;-71
2022/01/01 12:51:10;;;;;;;11.97;8.10;;;;;;;;;;5096566;28;20495;-72
2022/01/01 12:53:41;;;;;;;14.73;8.40;;;;;;;;;;5096519;28;20399;-74
2022/01/01 12:56:14;;;;;;;11.80;8.10;;;;;;;;;;5095238;28;20467;-71
2022/01/01 12:58:45;;;;;;;12.87;8.73;;;;;;;;;;5096267;28;20451;-72
2022/01/01 13:01:17;;;;;;;10.17;7.60;;;;;;;;;;5096379;28;20406;-71
2022/01/01 13:03:44;;;;;;;10.23;7.83;;;;;;;;;;5094987;28;20408;-71
2022/01/01 13:06:10;;;;;;;13.27;8.10;;;;;;;;;;5096351;28;20443;-70
2022/01/01 13:08:42;;;;;;;11.97;7.47;;;;;;;;;;5096265;28;20387;-72
2022/01/01 13:11:09;;;;;;;11.80;7.10;;;;;;;;;;5096083;28;20404;-71
2022/01/01 13:13:35;;;;;;;14.73;8.93;;;;;;;;;;5095396;28;20794;-71
2022/01/01 13:16:01;;;;;;;9.00;7.60;;;;;;;;;;5096100;28;20487;-72
2022/01/01 13:18:28;;;;;;;12.10;7.43;;;;;;;;;;5096087;28;20490;-72
2022/01/01 13:20:54;;;;;;;9.70;7.80;;;;;;;;;;5095994;28;20407;-71
2022/01/01 13:23:24;;;;;;;10.60;7.97;;;;;;;;;;5095956;28;20412;-72
2022/01/01 13:25:53;;;;;;;10.40;8.20;;;;;;;;;;5095953;28;20407;-71
2022/01/01 13:28:22;;;;;;;13.60;8.17;;;;;;;;;;5095730;28;20388;-71
2022/01/01 13:30:48;;;;;;;12.20;7.93;;;;;;;;;;5095730;28;20460;-72
2022/01/01 13:33:17;;;;;;;10.90;8.27;;;;;;;;;;5094353;28;20420;-71
2022/01/01 13:35:50;;;;;;;8.30;6.20;;;;;;;;;;5095705;28;20451;-71
2022/01/01 13:38:16;;;;;;;10.63;6.77;;;;;;;;;;5094238;28;20428;-71
2022/01/01 13:40:47;;;;;;;8.60;6.43;;;;;;;;;;5095583;28;20482;-72
2022/01/01 13:43:13;;;;;;;11.40;7.27;;;;;;;;;;5095580;28;20408;-72
2022/01/01 13:45:39;;;;;;;9.77;6.33;;;;;;;;;;5095547;28;20402;-72
2022/01/01 13:48:09;;;;;;;8.93;6.43;;;;;;;;;;5095417;28;20424;-72
2022/01/01 13:50:39;;;;;;;9.37;6.63;;;;;;;;;;5095349;28;20861;-71
2022/01/01 13:53:07;;;;;;;8.43;6.63;;;;;;;;;;5094074;28;20480;-72
2022/01/01 13:55:34;;;;;;;9.23;6.37;;;;;;;;;;5095116;28;20746;-76
2022/01/01 13:58:02;;;;;;;7.60;6.20;;;;;;;;;;5095130;28;20412;-72
2022/01/01 14:00:28;;;;;;;8.60;5.97;;;;;;;;;;5095373;28;20414;-75
2022/01/01 14:02:57;;;;;;;10.57;6.90;;;;;;;;;;5095087;28;20858;-77
2022/01/01 14:05:23;;;;;;;10.27;7.27;;;;;;;;;;5095037;28;20462;-72
2022/01/01 14:07:51;;;;;;;9.27;7.53;;;;;;;;;;5093746;28;20420;-72
2022/01/01 14:10:20;;;;;;;7.53;5.70;;;;;;;;;;5095045;28;20408;-73
2022/01/01 14:12:52;;;;;;;8.43;5.93;;;;;;;;;;5095021;28;20406;-73
2022/01/01 14:15:20;;;;;;;8.37;6.30;;;;;;;;;;5094829;28;20414;-72
2022/01/01 14:17:56;;;;;;;10.00;6.13;;;;;;;;;;5094776;28;20463;-71
2022/01/01 14:20:24;;;;;;;7.10;6.13;;;;;;;;;;5094899;28;20408;-75
2022/01/01 14:22:50;;;;;;;10.37;7.37;;;;;;;;;;5094953;28;20410;-72
2022/01/01 14:25:17;;;;;;;10.13;6.87;;;;;;;;;;5093791;28;20404;-74
2022/01/01 14:27:43;;;;;;;7.67;6.27;;;;;;;;;;5094706;28;20400;-71
2022/01/01 14:30:09;;;;;;;10.23;7.37;;;;;;;;;;5094706;28;20408;-72
2022/01/01 14:32:35;;;;;;;7.97;6.67;;;;;;;;;;5094332;28;20754;-73
2022/01/01 14:35:05;;;;;;;8.90;6.00;;;;;;;;;;5093425;28;20415;-72
2022/01/01 14:37:32;;;;;;;9.93;7.60;;;;;;;;;;5094433;28;20470;-72
2022/01/01 14:39:59;;;;;;;10.37;6.70;;;;;;;;;;5094479;28;20404;-72
2022/01/01 14:42:25;;;;;;;9.90;6.70;;;;;;;;;;5093221;28;20415;-75
2022/01/01 14:44:52;;;;;;;10.70;7.90;;;;;;;;;;5094478;28;20434;-74